Ashton, NE (68817)

7:40 PM CDT on July 29, 2014 (GMT -0500)
Central (KNELOUPC2) Elev 2090 ft | 41.28 °N, 98.97 °W | Change Station

Current weather conditions updated 10 minutes ago

Clear
Clear
75.9 °F
Feels Like 78 °F
N
2.2
Wind Variable Wind from South

Tomorrow is forecast to be nearly the same temperature as today.

Today
High -- | Low -- °F
--% Chance of Precip.
Yesterday
High -- | Low -- °F
Precip. -- in
6:27 AM 8:55 PM
Waxing Crescent, 8% visible
Pressure 30.11 in
Visibility 10.0 miles
Clouds Clear
Heat Index 78 °F
Dew Point 62 °F
Humidity 63%
Rainfall 0.00 in
Snow Depth Not available.
UV 2 out of 12
Pollen 7.10 out of 12
Air Quality Not available.
Flu Activity Not available.
METAR KODX 292353Z AUTO 09005KT 10SM CLR 24/14 A3013 RMK AO2 SLP195 T02390144 10272 20233 58013

More Conditions Fewer Conditions

Pressure 30.11 in
Visibility 10.0 miles
Clouds Clear
Heat Index 78 °F
Dew Point 62 °F
Humidity 63%
Rainfall 0.00 in
Snow Depth Not available.
UV 2 out of 12
Pollen 7.10 out of 12
Air Quality Not available.
Flu Activity Not available.
METAR KODX 292353Z AUTO 09005KT 10SM CLR 24/14 A3013 RMK AO2 SLP195 T02390144 10272 20233 58013

More Conditions Fewer Conditions

10-Day Weather Forecast

Almanac

Astronomy

Jul. 29, 2014 Rise Set
Actual Time 6:27 AM CDT 8:55 PM CDT
Civil Twilight 5:56 AM CDT 9:26 PM CDT
Nautical Twilight 5:17 AM CDT 10:05 PM CDT
Astronomical Twilight 4:33 AM CDT 10:48 PM CDT
Moon 9:07 AM CDT (7/29) 10:05 PM CDT (7/29)
Length of Visible Light 15h 30m
Length of Day
14h 27m
Tomorrow will be 2m 1s shorter.
Waxing Crescent, 8% of the Moon is Illuminated
Today
Waxing Crescent
Aug 3
First Quarter
Aug 10
Full
Aug 17
Last Quarter
Aug 25
New

Today's Extremes

State Highs State Lows

Community

WunderPhotos

Upload Photos

1,738,924 photos uploaded!

Nearby

Snow Depth

Station Depth Elevation
No new snow has been reported.

Earthquake Activity

City Distance Mag. Time & Date
No recent earthquake activity has been reported nearby.
Minimum magnitude displayed is 2.5.

Coastal Water Temperatures

Place Temperature
No Stations Reporting

Nearby Weather Stations

Station Location Temp. Heat Index Dew Point Humidity Wind Precip. Elev Updated Type
Central, Loup City, NE 75.9 °F 78 °F 62 °F 63% South  at  2.2 mph - / hr 2090 ft 7:30 PM CDT Normal

Show More Stations Show Fewer Stations